Flight Track Log - Related Links

Times and Time Zones

All times are in EDT time to prevent confusion due to time zone crossing. See the DAL2028 flight status page for this flight to view local times or setup timezone preferences in your user account.

Time Position Orientation Groundspeed Altitude Reporting Facility
EDT Latitude Longitude Course Direction KTS MPH feet Rate Location/Type
Thu 13:26:36 42.1975 -83.3581 202° Southwest 160 184 1,600  Level Cleveland Center
Thu 13:27:37 42.1406 -83.3781 195° South 237 273 3,800 2,656 Climbing Cleveland Center
Thu 13:28:38 42.0714 -83.3944 190° South 274 315 7,000 3,246 Climbing Cleveland Center
Thu 13:29:00 41.7426 -83.2703 180° South  Level Estimated
Thu 13:29:39 41.9944 -83.3828 174° South 283 326 10,400  Level Cleveland Center
Thu 13:30:00 41.6251 -83.2498 180° South  Level Estimated
Thu 13:30:40 41.9011 -83.3731 176° South 351 404 11,800  Level Cleveland Center
Thu 13:31:00 41.5077 -83.2293 202° Southwest  Level Estimated
Thu 13:31:58 41.7575 -83.3528 174° South 435 501 13,100  Level Cleveland Center
Thu 13:32:58 41.6494 -83.3400 175° South 418 481 16,100 2,550 Climbing Cleveland Center
Thu 13:33:58 41.5328 -83.3378 179° South 412 474 18,200 1,900 Climbing Cleveland Center
Thu 13:34:58 41.4231 -83.3911 200° South 412 474 19,900 1,750 Climbing Cleveland Center
Thu 13:35:58 41.3108 -83.4581 204° Southwest 430 495 21,700 1,850 Climbing Cleveland Center
Thu 13:36:58 41.1925 -83.5275 204° Southwest 446 513 23,600 1,698 Climbing Cleveland Center
Thu 13:37:44 41.1108 -83.5756 204° Southwest 466 536 24,700 1,389 Climbing Indianapolis Center
Thu 13:38:46 40.9956 -83.6397 203° Southwest 476 548 26,100 1,355 Climbing Indianapolis Center
Thu 13:39:48 40.8481 -83.7208 203° Southwest 486 559 27,500 1,694 Climbing Indianapolis Center
Thu 13:40:50 40.7100 -83.7344 184° South 493 567 29,600 1,742 Climbing Indianapolis Center
Thu 13:41:52 40.5739 -83.7339 180° South 486 559 31,100 1,935 Climbing Indianapolis Center
Thu 13:42:54 40.4425 -83.7358 181° South 473 544 33,600 1,887 Climbing Indianapolis Center
Thu 13:43:56 40.3169 -83.7425 182° South 451 519 35,000 919 Climbing Indianapolis Center
Thu 13:44:58 40.1928 -83.7778 192° South 451 519 35,500 968 Climbing Indianapolis Center
Thu 13:46:00 40.0464 -83.8194 192° South 460 529 37,000 1,161 Climbing Indianapolis Center
Thu 13:47:02 39.9192 -83.8428 188° South 461 531 37,900 871 Climbing Indianapolis Center
Thu 13:48:04 39.7922 -83.8414 180° South 457 526 38,800 532 Climbing Indianapolis Center
Thu 13:49:06 39.6658 -83.8422 180° South 456 525 39,000 48 Climbing Indianapolis Center
Thu 13:50:08 39.5372 -83.8431 180° South 459 528 38,900  Descending Indianapolis Center
Thu 13:51:10 39.4081 -83.8456 181° South 462 532 39,000 48 Climbing Indianapolis Center
Thu 13:52:12 39.2561 -83.8467 180° South 465 535 39,000  Level Indianapolis Center
Thu 13:53:14 39.1269 -83.8486 181° South 460 529 39,000  Level Indianapolis Center
Thu 13:54:16 38.9958 -83.8503 181° South 468 539 39,000 -49 Level Indianapolis Center
Thu 13:55:17 38.8653 -83.8503 180° South 467 537 38,900  Descending Indianapolis Center
Thu 13:56:19 38.7325 -83.8533 181° South 472 543 39,000 48 Climbing Indianapolis Center
Thu 13:57:21 38.6028 -83.8558 181° South 466 536 39,000  Level Indianapolis Center
Thu 13:58:23 38.4514 -83.8572 180° South 466 536 39,000  Level Indianapolis Center
Thu 13:59:25 38.3181 -83.8600 181° South 473 544 39,000  Level Indianapolis Center
Thu 14:00:27 38.1872 -83.8622 181° South 470 541 39,000  Level Indianapolis Center
Thu 14:01:29 38.0572 -83.8644 181° South 465 535 39,000  Level Indianapolis Center
Thu 14:02:31 37.9267 -83.8658 180° South 468 539 39,000  Level Indianapolis Center
Thu 14:03:33 37.7975 -83.8564 177° South 468 539 39,000  Level Indianapolis Center
Thu 14:04:35 37.6475 -83.8067 165° South 476 548 39,000  Level Indianapolis Center
Thu 14:05:36 37.5181 -83.7983 177° South 466 536 39,000  Level Indianapolis Center
Thu 14:06:38 37.3861 -83.7867 176° South 472 543 39,000  Level Indianapolis Center
Thu 14:07:40 37.2558 -83.7728 175° South 470 541 39,000  Level Indianapolis Center
Thu 14:08:42 37.1244 -83.7592 175° South 474 545 39,000  Level Indianapolis Center
Thu 14:09:44 36.9711 -83.7436 175° South 476 548 39,000  Level Indianapolis Center
Thu 14:10:46 36.8394 -83.7325 176° South 475 547 39,000  Level Indianapolis Center
Thu 14:11:48 36.7075 -83.7228 177° South 476 548 39,000  Level Indianapolis Center
Thu 14:12:50 36.5753 -83.7119 176° South 478 550 39,000  Level Indianapolis Center
Thu 14:13:52 36.4406 -83.7008 176° South 475 547 39,000  Level Indianapolis Center
Thu 14:14:54 36.3078 -83.6900 176° South 475 547 39,000  Level Indianapolis Center
Thu 14:15:56 36.1742 -83.6794 176° South 478 550 39,000  Level Indianapolis Center
Thu 14:16:58 36.0153 -83.6653 176° South 476 548 39,000  Level Indianapolis Center
Thu 14:18:00 35.8931 -83.6578 177° South 475 547 39,000  Level Indianapolis Center
Thu 14:19:01 35.7611 -83.6469 176° South 473 544 39,000  Level Indianapolis Center
Thu 14:20:03 35.6053 -83.6350 176° South 478 550 39,000  Level Indianapolis Center
Thu 14:20:56 35.5028 -83.6281 177° South 481 554 39,000  Level Atlanta Center
Thu 14:21:56 35.3692 -83.6186 177° South 481 554 39,000  Level Atlanta Center
Thu 14:22:56 35.2356 -83.6064 176° South 481 554 39,000  Level Atlanta Center
Thu 14:23:56 35.0978 -83.5969 177° South 481 554 39,000  Level Atlanta Center
Thu 14:24:56 34.9642 -83.5878 177° South 481 554 39,000  Level Atlanta Center
Thu 14:25:56 34.8181 -83.5708 175° South 481 554 39,000  Level Atlanta Center
Thu 14:26:56 34.6825 -83.5614 177° South 488 562 39,000  Level Atlanta Center
Thu 14:27:56 34.5467 -83.5519 177° South 488 562 39,000  Level Atlanta Center
Thu 14:28:56 34.4111 -83.5428 177° South 493 567 39,000  Level Atlanta Center
Thu 14:29:56 34.2775 -83.5311 176° South 493 567 39,000  Level Atlanta Center
Thu 14:30:56 34.1439 -83.5217 177° South 493 567 39,000  Level Atlanta Center
Thu 14:31:56 34.0061 -83.5100 176° South 493 567 39,000  Level Atlanta Center
Thu 14:32:56 33.8828 -83.5008 176° South 493 567 39,000  Level Atlanta Center
Thu 14:33:56 33.7492 -83.4942 178° South 493 567 39,000  Level Atlanta Center
Thu 14:34:56 33.6114 -83.4850 177° South 501 577 39,000  Level Atlanta Center
Thu 14:35:56 33.4756 -83.4736 176° South 493 567 39,000 -350 Level Atlanta Center
Thu 14:36:56 33.3378 -83.4669 178° South 498 573 38,300 -850 Descending Atlanta Center
Thu 14:37:56 33.1856 -83.4531 176° South 498 573 37,300 -950 Descending Atlanta Center
Thu 14:38:56 33.0539 -83.4439 177° South 498 573 36,400 -800 Descending Atlanta Center
Thu 14:39:56 32.9139 -83.4300 175° South 493 567 35,700 -700 Descending Atlanta Center
Thu 14:40:56 32.7761 -83.4236 178° South 493 567 35,000 -350 Descending Atlanta Center
Thu 14:41:56 32.6383 -83.4122 176° South 499 574 35,000  Level Atlanta Center
Thu 14:42:56 32.5025 -83.4033 177° South 499 574 35,000  Level Atlanta Center
Thu 14:43:56 32.3628 -83.3922 176° South 499 574 35,000  Level Atlanta Center
Thu 14:44:56 32.2228 -83.3833 177° South 499 574 35,000  Level Atlanta Center
Thu 14:45:56 32.0872 -83.3719 176° South 499 574 35,000  Level Atlanta Center
Thu 14:46:56 31.9472 -83.3608 176° South 494 568 35,000  Level Atlanta Center
Thu 14:48:24 31.7397 -83.3444 176° South 500 575 35,000  Level Jacksonville Center
Thu 14:49:25 31.6000 -83.3342 176° South 500 575 35,000  Level Jacksonville Center
Thu 14:50:25 31.4622 -83.3261 177° South 500 575 35,000  Level Jacksonville Center
Thu 14:51:24 31.3244 -83.3158 176° South 500 575 35,000  Level Jacksonville Center
Thu 14:52:25 31.1886 -83.3078 177° South 495 570 35,000 -298 Level Jacksonville Center
Thu 14:53:25 31.0489 -83.2975 176° South 495 570 34,400 -1,500 Descending Jacksonville Center
Thu 14:54:25 30.9111 -83.2919 178° South 495 570 32,000 -2,521 Descending Jacksonville Center
Thu 14:55:24 30.7775 -83.2842 177° South 495 570 29,400 -2,471 Descending Jacksonville Center
Thu 14:56:24 30.6356 -83.2814 179° South 495 570 27,100 -1,190 Descending Jacksonville Center
Thu 14:57:25 30.4936 -83.2758 178° South 502 578 27,000 -99 Descending Jacksonville Center
Thu 14:58:25 30.3558 -83.2392 167° South 508 585 26,900 -50 Descending Jacksonville Center
Thu 14:59:25 30.2433 -83.1450 144° Southeast 489 563 26,900  Level Jacksonville Center
Thu 15:00:25 30.1350 -83.0392 140° Southeast 489 563 26,900 -50 Level Jacksonville Center
Thu 15:01:25 30.0244 -82.9358 141° Southeast 502 578 26,800 -450 Descending Jacksonville Center
Thu 15:02:25 29.9200 -82.8447 143° Southeast 512 589 26,000 -655 Descending Jacksonville Center
Thu 15:03:24 29.8133 -82.7442 141° Southeast 512 589 25,500 -403 Descending Jacksonville Center
Thu 15:04:24 29.7047 -82.6439 141° Southeast 507 583 25,200 -893 Descending Jacksonville Center
Thu 15:05:25 29.5981 -82.5461 141° Southeast 507 583 23,700 -1,686 Descending Jacksonville Center
Thu 15:06:25 29.4975 -82.4822 151° Southeast 465 535 21,800 -2,319 Descending Jacksonville Center
Thu 15:07:24 29.4014 -82.4231 152° Southeast 421 484 19,100 -1,900 Descending Jacksonville Center
Thu 15:08:25 29.3050 -82.3592 150° Southeast 401 461 18,000 -1,091 Descending Jacksonville Center
Thu 15:09:25 29.2131 -82.2978 150° Southeast 391 450 16,900 -1,462 Descending Jacksonville Center
Thu 15:10:24 29.1375 -82.2175 137° Southeast 385 443 15,100 -1,000 Descending Jacksonville Center
Thu 15:11:25 29.0617 -82.1325 136° Southeast 380 437 14,900 -744 Descending Jacksonville Center
Thu 15:12:25 28.9903 -82.0522 135° Southeast 367 422 13,600 -1,311 Descending Jacksonville Center
Thu 15:13:24 28.9272 -81.9650 130° Southeast 355 409 12,300 -1,150 Descending Jacksonville Center
Thu 15:14:25 28.8722 -81.8850 128° Southeast 339 390 11,300 -1,339 Descending Jacksonville Center
Thu 15:15:25 28.8444 -81.7975 110° East 307 353 9,600 -1,160 Descending Jacksonville Center
Thu 15:16:24 28.8144 -81.7078 111° Southeast 297 342 9,000 -400 Descending Jacksonville Center
Thu 15:16:55 28.8000 -81.6500 106° East 299 344 9,000 -66 Level Orlando TRACON
Thu 15:17:55 28.7667 -81.5667 115° Southeast 280 322 8,900 -700 Descending Orlando TRACON
Thu 15:18:55 28.7500 -81.5000 106° East 237 273 7,600 -1,600 Descending Orlando TRACON
Thu 15:19:55 28.7167 -81.4167 115° Southeast 240 276 5,700 -1,750 Descending Orlando TRACON
Thu 15:20:55 28.6667 -81.3833 150° Southeast 233 268 4,100 -1,238 Descending Orlando TRACON
Thu 15:22:01 28.6000 -81.3500 156° South 233 268 3,100 -909 Descending Orlando TRACON

Login

Don't have an account? Register now (free) for customized features, flight alerts, and more!